sensor_id;sensor_type;location;lat;lon;timestamp;P1;durP1;ratioP1;P2;durP2;ratioP2
70683;SDS011;58263;48.146;11.440;2023-02-28T00:02:15;2.27;;;2.03;;
70683;SDS011;58263;48.146;11.440;2023-02-28T00:04:42;4.45;;;2.63;;
70683;SDS011;58263;48.146;11.440;2023-02-28T00:07:08;4.70;;;2.60;;
70683;SDS011;58263;48.146;11.440;2023-02-28T00:09:34;5.43;;;2.80;;
70683;SDS011;58263;48.146;11.440;2023-02-28T00:11:59;2.20;;;2.00;;
70683;SDS011;58263;48.146;11.440;2023-02-28T00:14:24;4.93;;;2.47;;
70683;SDS011;58263;48.146;11.440;2023-02-28T00:16:49;3.57;;;2.70;;
70683;SDS011;58263;48.146;11.440;2023-02-28T00:19:15;4.87;;;2.60;;
70683;SDS011;58263;48.146;11.440;2023-02-28T00:21:40;2.85;;;2.20;;
70683;SDS011;58263;48.146;11.440;2023-02-28T00:24:06;5.63;;;2.80;;
70683;SDS011;58263;48.146;11.440;2023-02-28T00:26:32;4.82;;;2.58;;
70683;SDS011;58263;48.146;11.440;2023-02-28T00:28:57;3.10;;;2.50;;
70683;SDS011;58263;48.146;11.440;2023-02-28T00:31:23;3.50;;;3.00;;
70683;SDS011;58263;48.146;11.440;2023-02-28T00:33:48;3.33;;;2.35;;
70683;SDS011;58263;48.146;11.440;2023-02-28T00:36:14;3.47;;;2.20;;
70683;SDS011;58263;48.146;11.440;2023-02-28T00:38:39;2.72;;;2.00;;
70683;SDS011;58263;48.146;11.440;2023-02-28T00:41:06;5.13;;;2.55;;
70683;SDS011;58263;48.146;11.440;2023-02-28T00:43:33;4.05;;;2.60;;
70683;SDS011;58263;48.146;11.440;2023-02-28T00:45:59;3.35;;;2.30;;
70683;SDS011;58263;48.146;11.440;2023-02-28T00:48:24;4.55;;;2.38;;
70683;SDS011;58263;48.146;11.440;2023-02-28T00:50:50;4.88;;;3.13;;
70683;SDS011;58263;48.146;11.440;2023-02-28T00:53:15;4.57;;;2.63;;
70683;SDS011;58263;48.146;11.440;2023-02-28T00:55:40;4.43;;;2.38;;
70683;SDS011;58263;48.146;11.440;2023-02-28T00:58:06;4.73;;;2.37;;
70683;SDS011;58263;48.146;11.440;2023-02-28T01:00:31;3.27;;;2.50;;
70683;SDS011;58263;48.146;11.440;2023-02-28T01:02:56;3.90;;;2.80;;
70683;SDS011;58263;48.146;11.440;2023-02-28T01:05:21;2.83;;;2.27;;
70683;SDS011;58263;48.146;11.440;2023-02-28T01:07:47;7.78;;;2.90;;
70683;SDS011;58263;48.146;11.440;2023-02-28T01:10:12;4.00;;;2.77;;
70683;SDS011;58263;48.146;11.440;2023-02-28T01:12:37;4.43;;;2.65;;
70683;SDS011;58263;48.146;11.440;2023-02-28T01:15:03;5.30;;;3.07;;
70683;SDS011;58263;48.146;11.440;2023-02-28T01:17:29;3.72;;;2.40;;
70683;SDS011;58263;48.146;11.440;2023-02-28T01:19:54;3.45;;;2.40;;
70683;SDS011;58263;48.146;11.440;2023-02-28T01:22:20;5.28;;;2.60;;
70683;SDS011;58263;48.146;11.440;2023-02-28T01:24:47;4.45;;;2.17;;
70683;SDS011;58263;48.146;11.440;2023-02-28T01:27:12;3.67;;;2.70;;
70683;SDS011;58263;48.146;11.440;2023-02-28T01:29:38;4.47;;;2.80;;
70683;SDS011;58263;48.146;11.440;2023-02-28T01:32:03;4.30;;;2.73;;
70683;SDS011;58263;48.146;11.440;2023-02-28T01:34:28;3.30;;;2.38;;
70683;SDS011;58263;48.146;11.440;2023-02-28T01:36:54;3.60;;;2.37;;
70683;SDS011;58263;48.146;11.440;2023-02-28T01:39:19;4.77;;;2.67;;
70683;SDS011;58263;48.146;11.440;2023-02-28T01:41:44;5.43;;;2.80;;
70683;SDS011;58263;48.146;11.440;2023-02-28T01:47:17;4.35;;;2.35;;
70683;SDS011;58263;48.146;11.440;2023-02-28T01:49:42;5.65;;;2.55;;
70683;SDS011;58263;48.146;11.440;2023-02-28T01:52:08;7.67;;;2.80;;
70683;SDS011;58263;48.146;11.440;2023-02-28T01:54:39;4.40;;;2.80;;
70683;SDS011;58263;48.146;11.440;2023-02-28T01:57:06;3.95;;;2.40;;
70683;SDS011;58263;48.146;11.440;2023-02-28T01:59:37;5.45;;;3.10;;
70683;SDS011;58263;48.146;11.440;2023-02-28T02:02:11;3.80;;;2.38;;
70683;SDS011;58263;48.146;11.440;2023-02-28T02:04:40;3.20;;;2.55;;
70683;SDS011;58263;48.146;11.440;2023-02-28T02:07:11;4.15;;;2.80;;
70683;SDS011;58263;48.146;11.440;2023-02-28T02:09:38;4.25;;;2.63;;
70683;SDS011;58263;48.146;11.440;2023-02-28T02:12:06;3.70;;;2.60;;
70683;SDS011;58263;48.146;11.440;2023-02-28T02:15:04;4.32;;;2.53;;
70683;SDS011;58263;48.146;11.440;2023-02-28T02:17:39;5.63;;;3.15;;
70683;SDS011;58263;48.146;11.440;2023-02-28T02:25:49;4.15;;;2.42;;
70683;SDS011;58263;48.146;11.440;2023-02-28T02:28:28;5.78;;;3.10;;
70683;SDS011;58263;48.146;11.440;2023-02-28T02:31:13;6.28;;;3.35;;
70683;SDS011;58263;48.146;11.440;2023-02-28T02:36:42;3.58;;;2.63;;
70683;SDS011;58263;48.146;11.440;2023-02-28T02:39:36;4.20;;;2.83;;
70683;SDS011;58263;48.146;11.440;2023-02-28T02:43:10;6.07;;;3.45;;
70683;SDS011;58263;48.146;11.440;2023-02-28T02:48:08;3.05;;;2.35;;
70683;SDS011;58263;48.146;11.440;2023-02-28T02:50:38;6.80;;;3.05;;
70683;SDS011;58263;48.146;11.440;2023-02-28T02:53:09;5.78;;;3.22;;
70683;SDS011;58263;48.146;11.440;2023-02-28T02:55:39;5.55;;;3.20;;
70683;SDS011;58263;48.146;11.440;2023-02-28T02:58:08;4.93;;;2.95;;
70683;SDS011;58263;48.146;11.440;2023-02-28T03:00:40;3.55;;;2.50;;
70683;SDS011;58263;48.146;11.440;2023-02-28T03:03:09;7.40;;;3.17;;
70683;SDS011;58263;48.146;11.440;2023-02-28T03:05:46;4.57;;;2.90;;
70683;SDS011;58263;48.146;11.440;2023-02-28T03:08:14;5.30;;;3.15;;
70683;SDS011;58263;48.146;11.440;2023-02-28T03:10:43;4.13;;;2.95;;
70683;SDS011;58263;48.146;11.440;2023-02-28T03:21:51;6.15;;;3.10;;
70683;SDS011;58263;48.146;11.440;2023-02-28T03:24:43;4.80;;;3.05;;
70683;SDS011;58263;48.146;11.440;2023-02-28T03:27:39;6.05;;;2.92;;
70683;SDS011;58263;48.146;11.440;2023-02-28T03:30:10;5.60;;;2.88;;
70683;SDS011;58263;48.146;11.440;2023-02-28T03:32:43;6.38;;;3.53;;
70683;SDS011;58263;48.146;11.440;2023-02-28T03:35:17;4.93;;;3.00;;
70683;SDS011;58263;48.146;11.440;2023-02-28T03:37:46;5.45;;;2.88;;
70683;SDS011;58263;48.146;11.440;2023-02-28T03:42:46;5.50;;;3.50;;
70683;SDS011;58263;48.146;11.440;2023-02-28T03:45:18;5.80;;;3.40;;
70683;SDS011;58263;48.146;11.440;2023-02-28T03:47:56;7.82;;;3.30;;
70683;SDS011;58263;48.146;11.440;2023-02-28T03:50:27;6.65;;;3.08;;
70683;SDS011;58263;48.146;11.440;2023-02-28T03:53:01;3.92;;;2.78;;
70683;SDS011;58263;48.146;11.440;2023-02-28T03:55:32;5.03;;;3.20;;
70683;SDS011;58263;48.146;11.440;2023-02-28T03:58:08;8.13;;;3.67;;
70683;SDS011;58263;48.146;11.440;2023-02-28T04:03:09;4.20;;;2.97;;
70683;SDS011;58263;48.146;11.440;2023-02-28T04:05:43;8.35;;;3.47;;
70683;SDS011;58263;48.146;11.440;2023-02-28T04:08:19;4.80;;;3.20;;
70683;SDS011;58263;48.146;11.440;2023-02-28T04:10:47;6.75;;;3.28;;
70683;SDS011;58263;48.146;11.440;2023-02-28T04:13:19;4.25;;;3.42;;
70683;SDS011;58263;48.146;11.440;2023-02-28T04:15:44;4.97;;;3.20;;
70683;SDS011;58263;48.146;11.440;2023-02-28T04:18:09;5.23;;;3.40;;
70683;SDS011;58263;48.146;11.440;2023-02-28T04:20:35;6.00;;;3.73;;
70683;SDS011;58263;48.146;11.440;2023-02-28T04:23:01;8.15;;;3.45;;
70683;SDS011;58263;48.146;11.440;2023-02-28T04:25:26;5.97;;;3.80;;
70683;SDS011;58263;48.146;11.440;2023-02-28T04:27:51;6.27;;;3.40;;
70683;SDS011;58263;48.146;11.440;2023-02-28T04:30:17;5.83;;;3.43;;
70683;SDS011;58263;48.146;11.440;2023-02-28T04:32:42;5.47;;;3.47;;
70683;SDS011;58263;48.146;11.440;2023-02-28T04:35:07;7.40;;;3.40;;
70683;SDS011;58263;48.146;11.440;2023-02-28T04:37:33;8.48;;;4.05;;
70683;SDS011;58263;48.146;11.440;2023-02-28T04:40:00;8.00;;;4.15;;
70683;SDS011;58263;48.146;11.440;2023-02-28T04:42:26;5.78;;;3.78;;
70683;SDS011;58263;48.146;11.440;2023-02-28T04:44:51;6.40;;;3.78;;
70683;SDS011;58263;48.146;11.440;2023-02-28T04:47:17;7.30;;;3.78;;
70683;SDS011;58263;48.146;11.440;2023-02-28T04:49:42;9.13;;;4.43;;
70683;SDS011;58263;48.146;11.440;2023-02-28T04:52:07;6.90;;;4.10;;
70683;SDS011;58263;48.146;11.440;2023-02-28T04:54:34;6.03;;;4.13;;
70683;SDS011;58263;48.146;11.440;2023-02-28T04:57:00;7.55;;;3.65;;
70683;SDS011;58263;48.146;11.440;2023-02-28T04:59:26;7.95;;;3.83;;
70683;SDS011;58263;48.146;11.440;2023-02-28T05:01:51;6.80;;;4.10;;
70683;SDS011;58263;48.146;11.440;2023-02-28T05:04:17;7.67;;;4.33;;
70683;SDS011;58263;48.146;11.440;2023-02-28T05:06:42;6.70;;;4.07;;
70683;SDS011;58263;48.146;11.440;2023-02-28T05:09:07;6.85;;;3.92;;
70683;SDS011;58263;48.146;11.440;2023-02-28T05:11:33;6.77;;;4.00;;
70683;SDS011;58263;48.146;11.440;2023-02-28T05:14:12;7.43;;;4.00;;
70683;SDS011;58263;48.146;11.440;2023-02-28T05:16:39;7.43;;;4.57;;
70683;SDS011;58263;48.146;11.440;2023-02-28T05:19:04;10.23;;;4.77;;
70683;SDS011;58263;48.146;11.440;2023-02-28T05:21:31;11.88;;;4.72;;
70683;SDS011;58263;48.146;11.440;2023-02-28T05:24:00;8.52;;;4.32;;
70683;SDS011;58263;48.146;11.440;2023-02-28T05:26:27;9.05;;;4.40;;
70683;SDS011;58263;48.146;11.440;2023-02-28T05:28:53;8.18;;;4.57;;
70683;SDS011;58263;48.146;11.440;2023-02-28T05:31:18;9.27;;;4.90;;
70683;SDS011;58263;48.146;11.440;2023-02-28T05:33:44;10.17;;;5.50;;
70683;SDS011;58263;48.146;11.440;2023-02-28T05:36:09;8.73;;;4.72;;
70683;SDS011;58263;48.146;11.440;2023-02-28T05:38:35;11.50;;;5.88;;
70683;SDS011;58263;48.146;11.440;2023-02-28T05:41:04;9.63;;;4.68;;
70683;SDS011;58263;48.146;11.440;2023-02-28T05:43:30;9.88;;;4.97;;
70683;SDS011;58263;48.146;11.440;2023-02-28T05:45:55;8.83;;;5.23;;
70683;SDS011;58263;48.146;11.440;2023-02-28T05:48:21;9.77;;;4.67;;
70683;SDS011;58263;48.146;11.440;2023-02-28T05:50:46;10.53;;;5.17;;
70683;SDS011;58263;48.146;11.440;2023-02-28T05:53:11;9.25;;;5.22;;
70683;SDS011;58263;48.146;11.440;2023-02-28T05:55:37;9.20;;;5.38;;
70683;SDS011;58263;48.146;11.440;2023-02-28T05:58:02;10.43;;;5.57;;
70683;SDS011;58263;48.146;11.440;2023-02-28T06:00:28;8.68;;;5.60;;
70683;SDS011;58263;48.146;11.440;2023-02-28T06:02:53;11.17;;;6.07;;
70683;SDS011;58263;48.146;11.440;2023-02-28T06:05:21;10.98;;;5.65;;
70683;SDS011;58263;48.146;11.440;2023-02-28T06:07:47;10.18;;;5.90;;
70683;SDS011;58263;48.146;11.440;2023-02-28T06:10:12;13.07;;;5.90;;
70683;SDS011;58263;48.146;11.440;2023-02-28T06:12:38;10.70;;;6.85;;
70683;SDS011;58263;48.146;11.440;2023-02-28T06:15:06;10.35;;;6.30;;
70683;SDS011;58263;48.146;11.440;2023-02-28T06:17:32;12.27;;;6.40;;
70683;SDS011;58263;48.146;11.440;2023-02-28T06:19:57;10.53;;;6.50;;
70683;SDS011;58263;48.146;11.440;2023-02-28T06:22:23;8.50;;;5.20;;
70683;SDS011;58263;48.146;11.440;2023-02-28T06:24:48;9.00;;;5.10;;
70683;SDS011;58263;48.146;11.440;2023-02-28T06:27:13;11.60;;;6.77;;
70683;SDS011;58263;48.146;11.440;2023-02-28T06:29:39;11.60;;;6.10;;
70683;SDS011;58263;48.146;11.440;2023-02-28T06:32:07;15.95;;;6.13;;
70683;SDS011;58263;48.146;11.440;2023-02-28T06:34:32;10.80;;;6.67;;
70683;SDS011;58263;48.146;11.440;2023-02-28T06:36:58;13.52;;;7.18;;
70683;SDS011;58263;48.146;11.440;2023-02-28T06:39:27;14.73;;;7.25;;
70683;SDS011;58263;48.146;11.440;2023-02-28T06:41:52;12.65;;;6.45;;
70683;SDS011;58263;48.146;11.440;2023-02-28T06:44:18;12.17;;;6.37;;
70683;SDS011;58263;48.146;11.440;2023-02-28T06:46:43;12.18;;;6.45;;
70683;SDS011;58263;48.146;11.440;2023-02-28T06:49:09;14.45;;;6.82;;
70683;SDS011;58263;48.146;11.440;2023-02-28T06:51:36;12.68;;;6.38;;
70683;SDS011;58263;48.146;11.440;2023-02-28T06:54:03;13.65;;;6.93;;
70683;SDS011;58263;48.146;11.440;2023-02-28T06:56:28;13.50;;;7.20;;
70683;SDS011;58263;48.146;11.440;2023-02-28T06:58:54;15.50;;;6.77;;
70683;SDS011;58263;48.146;11.440;2023-02-28T07:01:19;14.07;;;7.55;;
70683;SDS011;58263;48.146;11.440;2023-02-28T07:03:45;12.40;;;6.45;;
70683;SDS011;58263;48.146;11.440;2023-02-28T07:06:11;11.52;;;7.10;;
70683;SDS011;58263;48.146;11.440;2023-02-28T07:08:37;11.73;;;6.25;;
70683;SDS011;58263;48.146;11.440;2023-02-28T07:11:03;12.40;;;6.68;;
70683;SDS011;58263;48.146;11.440;2023-02-28T07:13:28;12.85;;;7.15;;
70683;SDS011;58263;48.146;11.440;2023-02-28T07:16:01;14.10;;;6.88;;
70683;SDS011;58263;48.146;11.440;2023-02-28T07:18:28;10.95;;;6.63;;
70683;SDS011;58263;48.146;11.440;2023-02-28T07:20:53;11.60;;;6.85;;
70683;SDS011;58263;48.146;11.440;2023-02-28T07:23:19;16.77;;;7.80;;
70683;SDS011;58263;48.146;11.440;2023-02-28T07:25:45;13.82;;;8.10;;
70683;SDS011;58263;48.146;11.440;2023-02-28T07:28:11;16.83;;;8.38;;
70683;SDS011;58263;48.146;11.440;2023-02-28T07:30:37;13.55;;;6.85;;
70683;SDS011;58263;48.146;11.440;2023-02-28T07:33:03;13.68;;;7.22;;
70683;SDS011;58263;48.146;11.440;2023-02-28T07:35:28;13.88;;;7.47;;
70683;SDS011;58263;48.146;11.440;2023-02-28T07:37:54;10.38;;;6.40;;
70683;SDS011;58263;48.146;11.440;2023-02-28T07:40:19;14.70;;;7.95;;
70683;SDS011;58263;48.146;11.440;2023-02-28T07:42:45;12.53;;;6.90;;
70683;SDS011;58263;48.146;11.440;2023-02-28T07:45:10;14.90;;;7.30;;
70683;SDS011;58263;48.146;11.440;2023-02-28T07:47:37;17.20;;;7.45;;
70683;SDS011;58263;48.146;11.440;2023-02-28T07:50:04;16.05;;;8.30;;
70683;SDS011;58263;48.146;11.440;2023-02-28T07:52:30;14.02;;;7.47;;
70683;SDS011;58263;48.146;11.440;2023-02-28T07:54:55;14.67;;;7.27;;
70683;SDS011;58263;48.146;11.440;2023-02-28T07:57:21;13.07;;;7.30;;
70683;SDS011;58263;48.146;11.440;2023-02-28T07:59:46;12.75;;;7.53;;
70683;SDS011;58263;48.146;11.440;2023-02-28T08:02:13;15.38;;;7.65;;
70683;SDS011;58263;48.146;11.440;2023-02-28T08:04:39;14.80;;;7.97;;
70683;SDS011;58263;48.146;11.440;2023-02-28T08:07:05;13.27;;;7.70;;
70683;SDS011;58263;48.146;11.440;2023-02-28T08:09:30;14.47;;;7.77;;
70683;SDS011;58263;48.146;11.440;2023-02-28T08:11:56;14.85;;;8.15;;
70683;SDS011;58263;48.146;11.440;2023-02-28T08:14:21;19.70;;;7.67;;
70683;SDS011;58263;48.146;11.440;2023-02-28T08:16:47;15.57;;;7.70;;
70683;SDS011;58263;48.146;11.440;2023-02-28T08:19:12;15.00;;;8.17;;
70683;SDS011;58263;48.146;11.440;2023-02-28T08:21:37;13.93;;;7.70;;
70683;SDS011;58263;48.146;11.440;2023-02-28T08:24:02;14.57;;;6.33;;
70683;SDS011;58263;48.146;11.440;2023-02-28T08:26:28;13.30;;;7.70;;
70683;SDS011;58263;48.146;11.440;2023-02-28T08:28:53;14.33;;;7.67;;
70683;SDS011;58263;48.146;11.440;2023-02-28T08:31:19;14.87;;;8.40;;
70683;SDS011;58263;48.146;11.440;2023-02-28T08:33:44;12.48;;;7.53;;
70683;SDS011;58263;48.146;11.440;2023-02-28T08:36:10;14.25;;;7.75;;
70683;SDS011;58263;48.146;11.440;2023-02-28T08:38:36;12.93;;;7.38;;
70683;SDS011;58263;48.146;11.440;2023-02-28T08:41:04;19.73;;;8.30;;
70683;SDS011;58263;48.146;11.440;2023-02-28T08:43:32;10.73;;;6.85;;
70683;SDS011;58263;48.146;11.440;2023-02-28T08:45:58;15.27;;;7.82;;
70683;SDS011;58263;48.146;11.440;2023-02-28T08:48:24;18.05;;;8.20;;
70683;SDS011;58263;48.146;11.440;2023-02-28T08:50:57;12.80;;;7.50;;
70683;SDS011;58263;48.146;11.440;2023-02-28T08:53:27;14.73;;;7.50;;
70683;SDS011;58263;48.146;11.440;2023-02-28T08:55:56;13.13;;;7.22;;
70683;SDS011;58263;48.146;11.440;2023-02-28T08:58:26;13.57;;;8.05;;
70683;SDS011;58263;48.146;11.440;2023-02-28T09:00:52;13.93;;;7.90;;
70683;SDS011;58263;48.146;11.440;2023-02-28T09:03:17;13.70;;;7.57;;
70683;SDS011;58263;48.146;11.440;2023-02-28T09:05:53;14.13;;;7.72;;
70683;SDS011;58263;48.146;11.440;2023-02-28T09:08:19;14.40;;;7.82;;
70683;SDS011;58263;48.146;11.440;2023-02-28T09:10:44;14.20;;;7.63;;
70683;SDS011;58263;48.146;11.440;2023-02-28T09:13:09;15.83;;;7.80;;
70683;SDS011;58263;48.146;11.440;2023-02-28T09:15:36;14.03;;;7.40;;
70683;SDS011;58263;48.146;11.440;2023-02-28T09:18:02;13.45;;;7.55;;
70683;SDS011;58263;48.146;11.440;2023-02-28T09:20:28;15.32;;;7.53;;
70683;SDS011;58263;48.146;11.440;2023-02-28T09:22:53;13.97;;;7.67;;
70683;SDS011;58263;48.146;11.440;2023-02-28T09:25:18;14.03;;;7.47;;
70683;SDS011;58263;48.146;11.440;2023-02-28T09:27:43;15.00;;;8.37;;
70683;SDS011;58263;48.146;11.440;2023-02-28T09:30:10;22.25;;;7.85;;
70683;SDS011;58263;48.146;11.440;2023-02-28T09:32:36;13.07;;;7.22;;
70683;SDS011;58263;48.146;11.440;2023-02-28T09:35:01;17.43;;;7.77;;
70683;SDS011;58263;48.146;11.440;2023-02-28T09:37:27;13.48;;;7.90;;
70683;SDS011;58263;48.146;11.440;2023-02-28T09:39:54;14.18;;;7.63;;
70683;SDS011;58263;48.146;11.440;2023-02-28T09:42:30;15.02;;;7.85;;
70683;SDS011;58263;48.146;11.440;2023-02-28T09:44:58;13.23;;;7.22;;
70683;SDS011;58263;48.146;11.440;2023-02-28T09:47:34;14.18;;;7.47;;
70683;SDS011;58263;48.146;11.440;2023-02-28T09:50:37;16.20;;;7.43;;
70683;SDS011;58263;48.146;11.440;2023-02-28T09:53:02;18.92;;;8.02;;
70683;SDS011;58263;48.146;11.440;2023-02-28T09:55:42;17.23;;;8.25;;
70683;SDS011;58263;48.146;11.440;2023-02-28T09:58:15;15.13;;;8.02;;
70683;SDS011;58263;48.146;11.440;2023-02-28T10:00:48;15.23;;;7.85;;
70683;SDS011;58263;48.146;11.440;2023-02-28T10:03:30;13.57;;;8.35;;
70683;SDS011;58263;48.146;11.440;2023-02-28T10:06:20;12.48;;;7.10;;
70683;SDS011;58263;48.146;11.440;2023-02-28T10:08:58;14.43;;;8.48;;
70683;SDS011;58263;48.146;11.440;2023-02-28T10:11:27;13.00;;;7.70;;
70683;SDS011;58263;48.146;11.440;2023-02-28T10:13:53;17.10;;;8.02;;
70683;SDS011;58263;48.146;11.440;2023-02-28T10:21:39;12.15;;;7.35;;
70683;SDS011;58263;48.146;11.440;2023-02-28T10:27:06;15.65;;;8.00;;
70683;SDS011;58263;48.146;11.440;2023-02-28T10:29:40;16.30;;;8.02;;
70683;SDS011;58263;48.146;11.440;2023-02-28T10:32:11;12.57;;;7.18;;
70683;SDS011;58263;48.146;11.440;2023-02-28T10:34:42;17.52;;;8.10;;
70683;SDS011;58263;48.146;11.440;2023-02-28T10:37:07;14.95;;;7.72;;
70683;SDS011;58263;48.146;11.440;2023-02-28T10:42:00;15.07;;;8.40;;
70683;SDS011;58263;48.146;11.440;2023-02-28T10:44:25;17.47;;;8.70;;
70683;SDS011;58263;48.146;11.440;2023-02-28T10:46:51;15.27;;;9.13;;
70683;SDS011;58263;48.146;11.440;2023-02-28T10:49:24;15.52;;;8.70;;
70683;SDS011;58263;48.146;11.440;2023-02-28T10:51:53;13.32;;;7.78;;
70683;SDS011;58263;48.146;11.440;2023-02-28T10:54:23;14.95;;;8.45;;
70683;SDS011;58263;48.146;11.440;2023-02-28T11:00:08;14.10;;;8.27;;
70683;SDS011;58263;48.146;11.440;2023-02-28T11:02:40;15.07;;;8.25;;
70683;SDS011;58263;48.146;11.440;2023-02-28T11:07:54;15.60;;;8.88;;
70683;SDS011;58263;48.146;11.440;2023-02-28T11:10:23;11.63;;;7.78;;
70683;SDS011;58263;48.146;11.440;2023-02-28T11:12:54;19.13;;;7.82;;
70683;SDS011;58263;48.146;11.440;2023-02-28T11:17:56;14.23;;;8.43;;
70683;SDS011;58263;48.146;11.440;2023-02-28T11:20:25;12.68;;;7.72;;
70683;SDS011;58263;48.146;11.440;2023-02-28T11:22:53;16.42;;;7.40;;
70683;SDS011;58263;48.146;11.440;2023-02-28T11:27:51;21.88;;;8.27;;
70683;SDS011;58263;48.146;11.440;2023-02-28T11:35:51;12.73;;;7.68;;
70683;SDS011;58263;48.146;11.440;2023-02-28T11:38:18;15.50;;;8.02;;
70683;SDS011;58263;48.146;11.440;2023-02-28T12:06:00;12.13;;;7.45;;
70683;SDS011;58263;48.146;11.440;2023-02-28T12:11:29;11.25;;;7.15;;
70683;SDS011;58263;48.146;11.440;2023-02-28T12:16:42;11.55;;;7.18;;
70683;SDS011;58263;48.146;11.440;2023-02-28T12:24:48;11.32;;;7.32;;
70683;SDS011;58263;48.146;11.440;2023-02-28T12:27:31;11.95;;;7.55;;
70683;SDS011;58263;48.146;11.440;2023-02-28T12:30:03;12.32;;;7.32;;
70683;SDS011;58263;48.146;11.440;2023-02-28T12:32:41;13.88;;;7.63;;
70683;SDS011;58263;48.146;11.440;2023-02-28T12:35:11;14.80;;;8.32;;
70683;SDS011;58263;48.146;11.440;2023-02-28T12:40:55;11.90;;;6.95;;
70683;SDS011;58263;48.146;11.440;2023-02-28T12:43:25;11.60;;;7.38;;
70683;SDS011;58263;48.146;11.440;2023-02-28T12:45:58;11.20;;;8.05;;
70683;SDS011;58263;48.146;11.440;2023-02-28T12:48:31;10.70;;;6.90;;
70683;SDS011;58263;48.146;11.440;2023-02-28T12:51:08;13.00;;;7.15;;
70683;SDS011;58263;48.146;11.440;2023-02-28T12:53:52;10.13;;;6.80;;
70683;SDS011;58263;48.146;11.440;2023-02-28T12:56:41;13.13;;;7.72;;
70683;SDS011;58263;48.146;11.440;2023-02-28T12:59:16;10.80;;;7.05;;
70683;SDS011;58263;48.146;11.440;2023-02-28T13:02:09;9.55;;;6.65;;
70683;SDS011;58263;48.146;11.440;2023-02-28T13:12:22;10.57;;;7.50;;
70683;SDS011;58263;48.146;11.440;2023-02-28T13:14:48;8.50;;;6.65;;
70683;SDS011;58263;48.146;11.440;2023-02-28T13:17:19;11.02;;;6.85;;
70683;SDS011;58263;48.146;11.440;2023-02-28T13:19:56;9.55;;;6.43;;
70683;SDS011;58263;48.146;11.440;2023-02-28T13:22:37;10.23;;;6.70;;
70683;SDS011;58263;48.146;11.440;2023-02-28T13:27:58;10.13;;;6.95;;
70683;SDS011;58263;48.146;11.440;2023-02-28T13:35:45;9.00;;;6.82;;
70683;SDS011;58263;48.146;11.440;2023-02-28T13:38:22;10.07;;;7.60;;
70683;SDS011;58263;48.146;11.440;2023-02-28T13:40:49;10.63;;;7.10;;
70683;SDS011;58263;48.146;11.440;2023-02-28T13:43:16;9.57;;;7.47;;
70683;SDS011;58263;48.146;11.440;2023-02-28T13:45:54;11.55;;;7.18;;
70683;SDS011;58263;48.146;11.440;2023-02-28T13:48:33;10.13;;;7.15;;
70683;SDS011;58263;48.146;11.440;2023-02-28T13:50:58;9.90;;;6.95;;
70683;SDS011;58263;48.146;11.440;2023-02-28T13:53:33;8.77;;;7.00;;
70683;SDS011;58263;48.146;11.440;2023-02-28T13:58:56;11.23;;;7.20;;
70683;SDS011;58263;48.146;11.440;2023-02-28T14:04:30;9.75;;;7.38;;
70683;SDS011;58263;48.146;11.440;2023-02-28T14:06:59;13.38;;;7.25;;
70683;SDS011;58263;48.146;11.440;2023-02-28T14:09:33;10.93;;;7.90;;
70683;SDS011;58263;48.146;11.440;2023-02-28T14:15:03;8.68;;;6.38;;
70683;SDS011;58263;48.146;11.440;2023-02-28T14:17:30;10.77;;;7.13;;
70683;SDS011;58263;48.146;11.440;2023-02-28T14:19:56;10.38;;;7.68;;
70683;SDS011;58263;48.146;11.440;2023-02-28T14:31:06;11.77;;;7.07;;
70683;SDS011;58263;48.146;11.440;2023-02-28T14:36:40;10.73;;;7.20;;
70683;SDS011;58263;48.146;11.440;2023-02-28T14:39:16;9.85;;;6.72;;
70683;SDS011;58263;48.146;11.440;2023-02-28T14:41:46;12.43;;;6.88;;
70683;SDS011;58263;48.146;11.440;2023-02-28T14:44:24;13.35;;;6.90;;
70683;SDS011;58263;48.146;11.440;2023-02-28T14:46:55;13.65;;;7.47;;
70683;SDS011;58263;48.146;11.440;2023-02-28T14:49:28;11.55;;;6.55;;
70683;SDS011;58263;48.146;11.440;2023-02-28T14:54:46;12.27;;;6.50;;
70683;SDS011;58263;48.146;11.440;2023-02-28T14:57:25;9.90;;;6.25;;
70683;SDS011;58263;48.146;11.440;2023-02-28T15:02:48;12.55;;;7.55;;
70683;SDS011;58263;48.146;11.440;2023-02-28T15:07:42;9.65;;;6.80;;
70683;SDS011;58263;48.146;11.440;2023-02-28T15:12:47;9.55;;;6.45;;
70683;SDS011;58263;48.146;11.440;2023-02-28T15:15:17;10.82;;;6.70;;
70683;SDS011;58263;48.146;11.440;2023-02-28T15:17:47;10.10;;;6.22;;
70683;SDS011;58263;48.146;11.440;2023-02-28T15:20:17;11.48;;;6.85;;
70683;SDS011;58263;48.146;11.440;2023-02-28T15:22:43;10.68;;;6.88;;
70683;SDS011;58263;48.146;11.440;2023-02-28T15:25:13;11.65;;;7.15;;
70683;SDS011;58263;48.146;11.440;2023-02-28T15:27:44;9.00;;;6.40;;
70683;SDS011;58263;48.146;11.440;2023-02-28T15:30:17;10.45;;;6.18;;
70683;SDS011;58263;48.146;11.440;2023-02-28T15:32:44;10.77;;;6.80;;
70683;SDS011;58263;48.146;11.440;2023-02-28T15:35:17;11.07;;;6.82;;
70683;SDS011;58263;48.146;11.440;2023-02-28T15:37:52;11.15;;;6.82;;
70683;SDS011;58263;48.146;11.440;2023-02-28T15:40:30;13.75;;;6.90;;
70683;SDS011;58263;48.146;11.440;2023-02-28T15:43:14;10.48;;;6.85;;
70683;SDS011;58263;48.146;11.440;2023-02-28T15:51:09;10.07;;;7.18;;
70683;SDS011;58263;48.146;11.440;2023-02-28T15:53:48;10.23;;;6.60;;
70683;SDS011;58263;48.146;11.440;2023-02-28T15:56:25;9.77;;;6.45;;
70683;SDS011;58263;48.146;11.440;2023-02-28T15:58:56;12.50;;;6.35;;
70683;SDS011;58263;48.146;11.440;2023-02-28T16:01:27;10.00;;;6.95;;
70683;SDS011;58263;48.146;11.440;2023-02-28T16:06:24;10.77;;;6.25;;
70683;SDS011;58263;48.146;11.440;2023-02-28T16:08:56;12.65;;;6.60;;
70683;SDS011;58263;48.146;11.440;2023-02-28T16:11:21;14.10;;;7.28;;
70683;SDS011;58263;48.146;11.440;2023-02-28T16:13:47;12.18;;;7.03;;
70683;SDS011;58263;48.146;11.440;2023-02-28T16:16:20;9.95;;;6.45;;
70683;SDS011;58263;48.146;11.440;2023-02-28T16:18:49;13.63;;;7.32;;
70683;SDS011;58263;48.146;11.440;2023-02-28T16:21:14;16.30;;;6.93;;
70683;SDS011;58263;48.146;11.440;2023-02-28T16:23:39;11.77;;;7.70;;
70683;SDS011;58263;48.146;11.440;2023-02-28T16:26:05;12.30;;;7.10;;
70683;SDS011;58263;48.146;11.440;2023-02-28T16:28:35;11.57;;;6.95;;
70683;SDS011;58263;48.146;11.440;2023-02-28T16:31:04;10.98;;;7.18;;
70683;SDS011;58263;48.146;11.440;2023-02-28T16:33:31;11.10;;;7.13;;
70683;SDS011;58263;48.146;11.440;2023-02-28T16:35:57;13.32;;;6.85;;
70683;SDS011;58263;48.146;11.440;2023-02-28T16:38:23;10.70;;;6.53;;
70683;SDS011;58263;48.146;11.440;2023-02-28T16:40:50;14.10;;;7.45;;
70683;SDS011;58263;48.146;11.440;2023-02-28T16:43:19;12.13;;;6.80;;
70683;SDS011;58263;48.146;11.440;2023-02-28T16:45:48;12.27;;;7.25;;
70683;SDS011;58263;48.146;11.440;2023-02-28T16:48:14;12.23;;;7.15;;
70683;SDS011;58263;48.146;11.440;2023-02-28T16:50:41;12.10;;;6.57;;
70683;SDS011;58263;48.146;11.440;2023-02-28T16:53:09;13.60;;;7.65;;
70683;SDS011;58263;48.146;11.440;2023-02-28T16:55:34;12.65;;;6.93;;
70683;SDS011;58263;48.146;11.440;2023-02-28T16:58:00;13.85;;;7.53;;
70683;SDS011;58263;48.146;11.440;2023-02-28T17:00:27;10.15;;;6.75;;
70683;SDS011;58263;48.146;11.440;2023-02-28T17:02:54;10.52;;;6.55;;
70683;SDS011;58263;48.146;11.440;2023-02-28T17:05:19;12.48;;;6.80;;
70683;SDS011;58263;48.146;11.440;2023-02-28T17:07:46;10.52;;;7.05;;